sensor_id;sensor_type;location;lat;lon;timestamp;pressure;altitude;pressure_sealevel;temperature;humidity
48792;BME280;34587;48.816;9.420;2023-06-14T04:16:53;98351.16;;;11.02;71.87
48792;BME280;34587;48.816;9.420;2023-06-14T04:19:18;98356.22;;;11.08;71.86
48792;BME280;34587;48.816;9.420;2023-06-14T04:21:44;98368.19;;;11.12;70.47
48792;BME280;34587;48.816;9.420;2023-06-14T04:24:09;98368.94;;;11.16;70.63
48792;BME280;34587;48.816;9.420;2023-06-14T04:26:42;98365.06;;;11.32;69.42
48792;BME280;34587;48.816;9.420;2023-06-14T04:29:12;98373.19;;;11.49;68.22
48792;BME280;34587;48.816;9.420;2023-06-14T04:31:43;98379.34;;;11.47;68.28
48792;BME280;34587;48.816;9.420;2023-06-14T04:34:10;98383.59;;;11.49;68.81
48792;BME280;34587;48.816;9.420;2023-06-14T04:36:42;98381.44;;;11.64;68.05
48792;BME280;34587;48.816;9.420;2023-06-14T04:39:17;98377.69;;;11.74;67.52
48792;BME280;34587;48.816;9.420;2023-06-14T04:41:46;98382.63;;;11.85;67.03
48792;BME280;34587;48.816;9.420;2023-06-14T04:44:12;98382.56;;;11.86;67.38
48792;BME280;34587;48.816;9.420;2023-06-14T04:46:38;98391.00;;;11.93;67.03
48792;BME280;34587;48.816;9.420;2023-06-14T04:49:13;98385.03;;;11.91;66.78
48792;BME280;34587;48.816;9.420;2023-06-14T04:51:40;98380.41;;;12.00;67.07
48792;BME280;34587;48.816;9.420;2023-06-14T04:54:06;98382.72;;;12.09;66.38
48792;BME280;34587;48.816;9.420;2023-06-14T04:56:35;98386.06;;;12.13;66.30
48792;BME280;34587;48.816;9.420;2023-06-14T04:59:02;98391.94;;;12.20;66.25
48792;BME280;34587;48.816;9.420;2023-06-14T05:01:30;98391.94;;;12.20;66.18
48792;BME280;34587;48.816;9.420;2023-06-14T05:03:57;98396.25;;;12.47;65.58
48792;BME280;34587;48.816;9.420;2023-06-14T05:06:22;98398.00;;;12.47;65.13
48792;BME280;34587;48.816;9.420;2023-06-14T05:08:47;98391.78;;;12.79;65.35
48792;BME280;34587;48.816;9.420;2023-06-14T05:11:12;98392.75;;;13.01;63.83
48792;BME280;34587;48.816;9.420;2023-06-14T05:13:38;98395.94;;;13.09;62.63
48792;BME280;34587;48.816;9.420;2023-06-14T05:16:05;98383.34;;;13.24;61.19
48792;BME280;34587;48.816;9.420;2023-06-14T05:18:31;98390.53;;;13.16;61.38
48792;BME280;34587;48.816;9.420;2023-06-14T05:20:59;98389.81;;;13.37;60.82
48792;BME280;34587;48.816;9.420;2023-06-14T05:23:24;98396.97;;;13.55;62.51
48792;BME280;34587;48.816;9.420;2023-06-14T05:25:50;98388.25;;;13.80;61.52
48792;BME280;34587;48.816;9.420;2023-06-14T05:28:15;98388.44;;;13.97;58.65
48792;BME280;34587;48.816;9.420;2023-06-14T05:30:41;98394.22;;;14.05;59.17
48792;BME280;34587;48.816;9.420;2023-06-14T05:33:07;98397.63;;;14.07;57.54
48792;BME280;34587;48.816;9.420;2023-06-14T05:35:32;98391.69;;;14.26;57.05
48792;BME280;34587;48.816;9.420;2023-06-14T05:37:58;98403.41;;;14.37;57.15
48792;BME280;34587;48.816;9.420;2023-06-14T05:40:23;98403.22;;;14.42;56.71
48792;BME280;34587;48.816;9.420;2023-06-14T05:42:49;98403.38;;;14.61;55.24
48792;BME280;34587;48.816;9.420;2023-06-14T05:45:14;98399.41;;;14.73;54.96
48792;BME280;34587;48.816;9.420;2023-06-14T05:47:41;98393.06;;;14.80;53.76
48792;BME280;34587;48.816;9.420;2023-06-14T05:50:06;98400.91;;;15.00;53.86
48792;BME280;34587;48.816;9.420;2023-06-14T05:52:32;98398.28;;;15.21;53.01
48792;BME280;34587;48.816;9.420;2023-06-14T05:54:57;98403.72;;;15.55;53.00
48792;BME280;34587;48.816;9.420;2023-06-14T05:57:22;98399.56;;;15.72;52.46
48792;BME280;34587;48.816;9.420;2023-06-14T05:59:48;98404.63;;;15.75;51.96
48792;BME280;34587;48.816;9.420;2023-06-14T06:02:13;98401.28;;;15.91;51.18
48792;BME280;34587;48.816;9.420;2023-06-14T06:04:38;98401.84;;;15.98;51.48
48792;BME280;34587;48.816;9.420;2023-06-14T06:07:04;98403.25;;;16.05;51.16
48792;BME280;34587;48.816;9.420;2023-06-14T06:09:30;98405.38;;;15.97;50.09
48792;BME280;34587;48.816;9.420;2023-06-14T06:11:56;98400.19;;;16.14;49.87
48792;BME280;34587;48.816;9.420;2023-06-14T06:14:21;98398.28;;;16.37;49.78
48792;BME280;34587;48.816;9.420;2023-06-14T06:16:46;98399.22;;;16.53;50.09
48792;BME280;34587;48.816;9.420;2023-06-14T06:19:12;98400.53;;;16.81;49.36
48792;BME280;34587;48.816;9.420;2023-06-14T06:21:37;98407.53;;;16.80;48.92
48792;BME280;34587;48.816;9.420;2023-06-14T06:24:04;98406.84;;;17.11;47.92
48792;BME280;34587;48.816;9.420;2023-06-14T06:26:30;98408.56;;;17.12;48.49
48792;BME280;34587;48.816;9.420;2023-06-14T06:28:56;98407.22;;;17.56;46.59
48792;BME280;34587;48.816;9.420;2023-06-14T06:31:22;98412.44;;;17.73;46.88
48792;BME280;34587;48.816;9.420;2023-06-14T06:33:47;98398.03;;;18.13;45.42
48792;BME280;34587;48.816;9.420;2023-06-14T06:36:13;98397.50;;;18.22;44.65
48792;BME280;34587;48.816;9.420;2023-06-14T06:38:38;98404.19;;;18.12;46.61
48792;BME280;34587;48.816;9.420;2023-06-14T06:41:03;98414.31;;;18.97;42.92
48792;BME280;34587;48.816;9.420;2023-06-14T06:43:29;98408.09;;;19.43;41.47
48792;BME280;34587;48.816;9.420;2023-06-14T06:45:54;98415.75;;;19.76;41.72
48792;BME280;34587;48.816;9.420;2023-06-14T06:48:19;98407.22;;;19.87;41.14
48792;BME280;34587;48.816;9.420;2023-06-14T06:50:45;98408.38;;;20.92;39.28
48792;BME280;34587;48.816;9.420;2023-06-14T06:53:10;98406.94;;;22.28;36.81
48792;BME280;34587;48.816;9.420;2023-06-14T06:55:35;98411.03;;;23.97;33.64
48792;BME280;34587;48.816;9.420;2023-06-14T06:58:00;98414.25;;;23.67;34.19
48792;BME280;34587;48.816;9.420;2023-06-14T07:00:26;98417.13;;;25.18;31.44
48792;BME280;34587;48.816;9.420;2023-06-14T07:02:51;98419.22;;;27.74;27.12
48792;BME280;34587;48.816;9.420;2023-06-14T07:05:17;98430.38;;;28.34;26.95
48792;BME280;34587;48.816;9.420;2023-06-14T07:07:42;98433.31;;;28.59;26.11
48792;BME280;34587;48.816;9.420;2023-06-14T07:10:08;98426.47;;;29.45;25.22
48792;BME280;34587;48.816;9.420;2023-06-14T07:12:33;98435.22;;;29.56;24.98
48792;BME280;34587;48.816;9.420;2023-06-14T07:15:04;98433.66;;;30.31;23.80
48792;BME280;34587;48.816;9.420;2023-06-14T07:17:30;98435.25;;;29.64;24.50
48792;BME280;34587;48.816;9.420;2023-06-14T07:19:55;98430.59;;;30.18;24.70
48792;BME280;34587;48.816;9.420;2023-06-14T07:22:21;98435.19;;;31.66;22.76
48792;BME280;34587;48.816;9.420;2023-06-14T07:24:46;98440.25;;;31.28;22.73
48792;BME280;34587;48.816;9.420;2023-06-14T07:27:11;98443.13;;;32.23;22.09
48792;BME280;34587;48.816;9.420;2023-06-14T07:29:38;98441.59;;;32.68;21.72
48792;BME280;34587;48.816;9.420;2023-06-14T07:32:04;98436.22;;;32.68;21.87
48792;BME280;34587;48.816;9.420;2023-06-14T07:34:29;98443.16;;;34.07;19.97
48792;BME280;34587;48.816;9.420;2023-06-14T07:36:55;98439.56;;;34.14;20.18
48792;BME280;34587;48.816;9.420;2023-06-14T07:39:20;98451.03;;;32.64;21.88
48792;BME280;34587;48.816;9.420;2023-06-14T07:41:45;98449.28;;;33.48;20.76
48792;BME280;34587;48.816;9.420;2023-06-14T07:44:11;98444.22;;;31.89;22.32
48792;BME280;34587;48.816;9.420;2023-06-14T07:46:37;98444.22;;;32.76;21.42
48792;BME280;34587;48.816;9.420;2023-06-14T07:49:03;98444.09;;;33.00;21.54
48792;BME280;34587;48.816;9.420;2023-06-14T07:51:28;98443.28;;;32.69;21.02
48792;BME280;34587;48.816;9.420;2023-06-14T07:53:53;98443.03;;;33.10;21.46
48792;BME280;34587;48.816;9.420;2023-06-14T07:56:19;98454.47;;;32.41;22.19
48792;BME280;34587;48.816;9.420;2023-06-14T07:58:44;98441.38;;;32.46;22.05
48792;BME280;34587;48.816;9.420;2023-06-14T08:01:09;98438.56;;;31.19;23.23
48792;BME280;34587;48.816;9.420;2023-06-14T08:03:36;98436.59;;;33.94;20.40
48792;BME280;34587;48.816;9.420;2023-06-14T08:06:01;98434.47;;;34.70;20.18
48792;BME280;34587;48.816;9.420;2023-06-14T08:08:27;98437.72;;;34.66;20.47
48792;BME280;34587;48.816;9.420;2023-06-14T08:10:52;98432.16;;;35.25;19.19
48792;BME280;34587;48.816;9.420;2023-06-14T08:13:17;98439.50;;;37.44;16.75
48792;BME280;34587;48.816;9.420;2023-06-14T08:15:43;98444.44;;;37.21;16.79
48792;BME280;34587;48.816;9.420;2023-06-14T08:18:09;98444.53;;;34.32;19.48
48792;BME280;34587;48.816;9.420;2023-06-14T08:20:34;98441.22;;;36.77;18.34
48792;BME280;34587;48.816;9.420;2023-06-14T08:23:00;98447.75;;;34.42;18.99
48792;BME280;34587;48.816;9.420;2023-06-14T08:25:26;98432.22;;;34.53;19.36
48792;BME280;34587;48.816;9.420;2023-06-14T08:27:52;98438.28;;;35.62;18.43
48792;BME280;34587;48.816;9.420;2023-06-14T08:30:17;98443.78;;;33.41;19.83
48792;BME280;34587;48.816;9.420;2023-06-14T08:32:43;98443.50;;;34.63;18.73
48792;BME280;34587;48.816;9.420;2023-06-14T08:35:08;98449.22;;;32.01;21.27
48792;BME280;34587;48.816;9.420;2023-06-14T08:37:40;98450.53;;;29.54;23.76
48792;BME280;34587;48.816;9.420;2023-06-14T08:40:29;98449.00;;;29.07;23.97
48792;BME280;34587;48.816;9.420;2023-06-14T08:42:55;98445.34;;;32.90;20.04
48792;BME280;34587;48.816;9.420;2023-06-14T08:45:22;98443.13;;;34.66;18.35
48792;BME280;34587;48.816;9.420;2023-06-14T08:47:48;98446.38;;;35.19;17.58
48792;BME280;34587;48.816;9.420;2023-06-14T08:50:27;98451.66;;;35.48;17.68
48792;BME280;34587;48.816;9.420;2023-06-14T08:52:55;98455.41;;;34.24;18.73
48792;BME280;34587;48.816;9.420;2023-06-14T08:55:23;98446.66;;;33.17;19.34
48792;BME280;34587;48.816;9.420;2023-06-14T08:57:51;98448.00;;;35.84;18.08
48792;BME280;34587;48.816;9.420;2023-06-14T09:00:19;98446.59;;;34.81;18.07
48792;BME280;34587;48.816;9.420;2023-06-14T09:02:45;98443.03;;;35.38;18.09
48792;BME280;34587;48.816;9.420;2023-06-14T09:05:11;98449.97;;;35.69;17.17
48792;BME280;34587;48.816;9.420;2023-06-14T09:07:41;98458.81;;;32.34;19.82
48792;BME280;34587;48.816;9.420;2023-06-14T09:10:16;98443.34;;;34.20;19.53
48792;BME280;34587;48.816;9.420;2023-06-14T09:12:42;98445.91;;;31.66;20.42
48792;BME280;34587;48.816;9.420;2023-06-14T09:15:08;98442.63;;;34.77;18.57
48792;BME280;34587;48.816;9.420;2023-06-14T09:17:38;98440.06;;;34.69;17.85
48792;BME280;34587;48.816;9.420;2023-06-14T09:20:05;98439.09;;;35.13;17.09
48792;BME280;34587;48.816;9.420;2023-06-14T09:22:34;98443.50;;;34.99;17.55
48792;BME280;34587;48.816;9.420;2023-06-14T09:25:00;98448.31;;;33.93;19.02
48792;BME280;34587;48.816;9.420;2023-06-14T09:27:29;98444.75;;;32.40;19.76
48792;BME280;34587;48.816;9.420;2023-06-14T09:29:55;98452.81;;;29.49;22.24
48792;BME280;34587;48.816;9.420;2023-06-14T09:32:21;98459.44;;;27.81;24.31
48792;BME280;34587;48.816;9.420;2023-06-14T09:34:47;98449.69;;;30.31;22.45
48792;BME280;34587;48.816;9.420;2023-06-14T09:37:12;98457.41;;;29.74;23.37
48792;BME280;34587;48.816;9.420;2023-06-14T09:39:50;98469.53;;;27.77;25.52
48792;BME280;34587;48.816;9.420;2023-06-14T09:42:17;98456.72;;;26.24;26.53
48792;BME280;34587;48.816;9.420;2023-06-14T09:44:49;98457.06;;;26.00;27.49
48792;BME280;34587;48.816;9.420;2023-06-14T09:47:14;98448.69;;;26.05;27.31
48792;BME280;34587;48.816;9.420;2023-06-14T09:49:40;98451.13;;;25.66;28.33
48792;BME280;34587;48.816;9.420;2023-06-14T09:52:06;98455.06;;;25.93;27.65
48792;BME280;34587;48.816;9.420;2023-06-14T09:54:40;98455.38;;;27.77;24.87
48792;BME280;34587;48.816;9.420;2023-06-14T09:57:07;98450.47;;;29.89;22.67
48792;BME280;34587;48.816;9.420;2023-06-14T09:59:34;98452.59;;;29.16;22.52
48792;BME280;34587;48.816;9.420;2023-06-14T10:02:07;98448.16;;;27.97;24.68
48792;BME280;34587;48.816;9.420;2023-06-14T10:04:36;98459.97;;;28.22;25.67
48792;BME280;34587;48.816;9.420;2023-06-14T10:07:03;98436.06;;;31.09;20.53
48792;BME280;34587;48.816;9.420;2023-06-14T10:09:30;98443.94;;;32.32;20.26
48792;BME280;34587;48.816;9.420;2023-06-14T10:11:56;98446.47;;;35.47;17.87
48792;BME280;34587;48.816;9.420;2023-06-14T10:14:21;98456.63;;;31.17;20.15
48792;BME280;34587;48.816;9.420;2023-06-14T10:16:56;98447.44;;;30.53;21.43
48792;BME280;34587;48.816;9.420;2023-06-14T10:19:42;98461.28;;;28.08;24.48
48792;BME280;34587;48.816;9.420;2023-06-14T10:22:15;98452.84;;;27.75;24.94
48792;BME280;34587;48.816;9.420;2023-06-14T10:24:43;98458.44;;;25.95;27.25
48792;BME280;34587;48.816;9.420;2023-06-14T10:27:09;98458.22;;;25.86;27.72
48792;BME280;34587;48.816;9.420;2023-06-14T10:32:17;98451.19;;;25.02;28.87
48792;BME280;34587;48.816;9.420;2023-06-14T10:34:44;98449.09;;;24.73;29.20
48792;BME280;34587;48.816;9.420;2023-06-14T10:37:13;98436.78;;;29.23;24.08
48792;BME280;34587;48.816;9.420;2023-06-14T10:39:43;98434.28;;;32.54;19.80
48792;BME280;34587;48.816;9.420;2023-06-14T10:42:11;98430.78;;;33.53;19.24
48792;BME280;34587;48.816;9.420;2023-06-14T10:44:50;98425.97;;;35.52;17.27
48792;BME280;34587;48.816;9.420;2023-06-14T10:47:32;98433.50;;;35.36;17.98
48792;BME280;34587;48.816;9.420;2023-06-14T10:50:05;98443.91;;;34.30;17.52
48792;BME280;34587;48.816;9.420;2023-06-14T10:52:39;98447.25;;;33.27;18.40
48792;BME280;34587;48.816;9.420;2023-06-14T10:55:14;98438.16;;;34.33;17.88
48792;BME280;34587;48.816;9.420;2023-06-14T10:57:42;98431.25;;;35.18;16.68
48792;BME280;34587;48.816;9.420;2023-06-14T11:00:08;98428.16;;;33.97;18.25
48792;BME280;34587;48.816;9.420;2023-06-14T11:05:28;98431.19;;;35.54;16.32
48792;BME280;34587;48.816;9.420;2023-06-14T11:10:41;98433.63;;;37.74;14.75
48792;BME280;34587;48.816;9.420;2023-06-14T11:13:07;98427.38;;;37.27;14.94
48792;BME280;34587;48.816;9.420;2023-06-14T11:15:35;98436.13;;;37.82;15.29
48792;BME280;34587;48.816;9.420;2023-06-14T11:18:07;98429.44;;;33.26;18.11
48792;BME280;34587;48.816;9.420;2023-06-14T11:20:36;98434.53;;;31.23;20.31
48792;BME280;34587;48.816;9.420;2023-06-14T11:23:03;98427.78;;;32.01;19.84
48792;BME280;34587;48.816;9.420;2023-06-14T11:25:29;98429.50;;;30.87;20.51
48792;BME280;34587;48.816;9.420;2023-06-14T11:27:55;98426.53;;;32.19;20.31
48792;BME280;34587;48.816;9.420;2023-06-14T11:30:21;98416.91;;;34.09;18.92
48792;BME280;34587;48.816;9.420;2023-06-14T11:32:52;98418.13;;;36.68;15.83
48792;BME280;34587;48.816;9.420;2023-06-14T11:35:18;98420.66;;;36.83;15.39
48792;BME280;34587;48.816;9.420;2023-06-14T11:37:44;98423.78;;;36.80;15.19
48792;BME280;34587;48.816;9.420;2023-06-14T11:40:10;98432.38;;;37.10;14.04
48792;BME280;34587;48.816;9.420;2023-06-14T11:42:38;98429.19;;;34.77;16.47
48792;BME280;34587;48.816;9.420;2023-06-14T11:45:06;98422.97;;;35.41;15.48
48792;BME280;34587;48.816;9.420;2023-06-14T11:47:32;98416.63;;;35.06;16.30
48792;BME280;34587;48.816;9.420;2023-06-14T11:50:02;98420.53;;;33.86;17.60
48792;BME280;34587;48.816;9.420;2023-06-14T11:52:28;98426.22;;;33.31;18.19
48792;BME280;34587;48.816;9.420;2023-06-14T11:54:54;98435.19;;;31.17;19.71
48792;BME280;34587;48.816;9.420;2023-06-14T11:57:20;98425.56;;;29.19;22.56
48792;BME280;34587;48.816;9.420;2023-06-14T11:59:46;98430.16;;;27.61;23.78
48792;BME280;34587;48.816;9.420;2023-06-14T12:02:15;98429.88;;;27.74;24.42
48792;BME280;34587;48.816;9.420;2023-06-14T12:04:42;98427.41;;;27.05;25.00
48792;BME280;34587;48.816;9.420;2023-06-14T12:07:11;98433.16;;;25.49;26.14
48792;BME280;34587;48.816;9.420;2023-06-14T12:12:24;98418.31;;;27.17;23.99
48792;BME280;34587;48.816;9.420;2023-06-14T12:14:51;98423.06;;;27.33;25.15
48792;BME280;34587;48.816;9.420;2023-06-14T12:17:17;98412.38;;;28.36;23.38
48792;BME280;34587;48.816;9.420;2023-06-14T12:19:43;98411.78;;;28.42;22.78
48792;BME280;34587;48.816;9.420;2023-06-14T12:22:10;98412.22;;;28.83;23.57
48792;BME280;34587;48.816;9.420;2023-06-14T12:24:36;98409.72;;;28.36;23.22
48792;BME280;34587;48.816;9.420;2023-06-14T12:27:03;98417.88;;;27.98;23.26
48792;BME280;34587;48.816;9.420;2023-06-14T12:29:29;98412.91;;;27.56;23.48
48792;BME280;34587;48.816;9.420;2023-06-14T12:31:54;98404.72;;;28.97;23.32
48792;BME280;34587;48.816;9.420;2023-06-14T12:34:24;98401.63;;;28.91;22.85
48792;BME280;34587;48.816;9.420;2023-06-14T12:36:53;98403.88;;;28.23;24.13
48792;BME280;34587;48.816;9.420;2023-06-14T12:39:19;98413.06;;;28.11;24.47
48792;BME280;34587;48.816;9.420;2023-06-14T12:41:45;98420.75;;;27.67;24.54
48792;BME280;34587;48.816;9.420;2023-06-14T12:44:11;98419.25;;;27.55;25.56
48792;BME280;34587;48.816;9.420;2023-06-14T12:46:37;98419.66;;;26.63;26.12
48792;BME280;34587;48.816;9.420;2023-06-14T12:49:04;98413.78;;;26.50;26.42
48792;BME280;34587;48.816;9.420;2023-06-14T12:51:30;98419.38;;;26.47;25.80
48792;BME280;34587;48.816;9.420;2023-06-14T12:53:56;98414.94;;;26.76;25.92
48792;BME280;34587;48.816;9.420;2023-06-14T12:56:21;98417.31;;;26.29;26.24
48792;BME280;34587;48.816;9.420;2023-06-14T12:58:46;98416.19;;;26.22;26.68
48792;BME280;34587;48.816;9.420;2023-06-14T13:01:11;98416.91;;;26.74;25.69
48792;BME280;34587;48.816;9.420;2023-06-14T13:03:37;98417.88;;;27.98;25.22
48792;BME280;34587;48.816;9.420;2023-06-14T13:06:03;98411.06;;;28.68;23.69
48792;BME280;34587;48.816;9.420;2023-06-14T13:08:29;98410.16;;;28.77;24.17
48792;BME280;34587;48.816;9.420;2023-06-14T13:10:55;98416.91;;;28.99;22.89
48792;BME280;34587;48.816;9.420;2023-06-14T13:13:20;98408.31;;;29.31;22.95
48792;BME280;34587;48.816;9.420;2023-06-14T13:15:46;98413.09;;;29.02;23.07
48792;BME280;34587;48.816;9.420;2023-06-14T13:18:12;98414.84;;;28.48;23.86
48792;BME280;34587;48.816;9.420;2023-06-14T13:20:41;98412.28;;;28.74;23.95
48792;BME280;34587;48.816;9.420;2023-06-14T13:23:07;98418.88;;;27.30;25.10
48792;BME280;34587;48.816;9.420;2023-06-14T13:25:36;98425.00;;;26.73;26.71
48792;BME280;34587;48.816;9.420;2023-06-14T13:28:03;98417.78;;;27.13;26.75
48792;BME280;34587;48.816;9.420;2023-06-14T13:30:29;98424.25;;;25.80;27.90
48792;BME280;34587;48.816;9.420;2023-06-14T13:32:54;98424.53;;;25.15;28.52
48792;BME280;34587;48.816;9.420;2023-06-14T13:35:21;98423.47;;;24.95;29.19
48792;BME280;34587;48.816;9.420;2023-06-14T13:37:47;98423.59;;;25.67;28.48
48792;BME280;34587;48.816;9.420;2023-06-14T13:40:12;98421.38;;;26.33;27.23
48792;BME280;34587;48.816;9.420;2023-06-14T13:42:37;98418.44;;;27.06;25.80
48792;BME280;34587;48.816;9.420;2023-06-14T13:45:04;98409.59;;;27.44;25.65
48792;BME280;34587;48.816;9.420;2023-06-14T13:47:30;98407.28;;;27.78;24.31
48792;BME280;34587;48.816;9.420;2023-06-14T13:49:56;98402.94;;;28.42;24.39
48792;BME280;34587;48.816;9.420;2023-06-14T13:52:21;98398.31;;;28.44;24.56
48792;BME280;34587;48.816;9.420;2023-06-14T13:54:47;98396.59;;;28.25;24.66
48792;BME280;34587;48.816;9.420;2023-06-14T13:57:12;98400.31;;;28.32;24.99
48792;BME280;34587;48.816;9.420;2023-06-14T13:59:38;98392.84;;;28.81;25.09
48792;BME280;34587;48.816;9.420;2023-06-14T14:02:04;98400.97;;;27.79;25.67
48792;BME280;34587;48.816;9.420;2023-06-14T14:04:30;98394.84;;;28.06;24.83
48792;BME280;34587;48.816;9.420;2023-06-14T14:06:56;98397.22;;;27.72;25.46
48792;BME280;34587;48.816;9.420;2023-06-14T14:09:21;98400.94;;;26.55;27.17
48792;BME280;34587;48.816;9.420;2023-06-14T14:11:46;98405.28;;;26.25;27.61
48792;BME280;34587;48.816;9.420;2023-06-14T14:14:14;98409.63;;;25.86;28.12
48792;BME280;34587;48.816;9.420;2023-06-14T14:16:39;98396.00;;;25.49;28.16
48792;BME280;34587;48.816;9.420;2023-06-14T14:19:04;98400.41;;;25.38;28.32
48792;BME280;34587;48.816;9.420;2023-06-14T14:21:30;98400.78;;;25.13;28.83
48792;BME280;34587;48.816;9.420;2023-06-14T14:23:56;98398.09;;;25.24;28.69
48792;BME280;34587;48.816;9.420;2023-06-14T14:26:21;98391.41;;;25.30;27.69
48792;BME280;34587;48.816;9.420;2023-06-14T14:28:46;98392.91;;;25.74;28.19
48792;BME280;34587;48.816;9.420;2023-06-14T14:31:12;98396.06;;;26.29;27.51
48792;BME280;34587;48.816;9.420;2023-06-14T14:33:37;98392.69;;;26.18;27.18
48792;BME280;34587;48.816;9.420;2023-06-14T14:36:02;98393.72;;;25.96;27.75
48792;BME280;34587;48.816;9.420;2023-06-14T14:38:29;98393.38;;;26.60;26.90
48792;BME280;34587;48.816;9.420;2023-06-14T14:40:54;98396.47;;;26.84;26.65
48792;BME280;34587;48.816;9.420;2023-06-14T14:43:20;98406.81;;;27.36;25.44
48792;BME280;34587;48.816;9.420;2023-06-14T14:45:45;98404.47;;;28.17;25.38
48792;BME280;34587;48.816;9.420;2023-06-14T14:48:10;98412.09;;;27.46;25.76
48792;BME280;34587;48.816;9.420;2023-06-14T14:50:35;98402.97;;;28.32;24.45
48792;BME280;34587;48.816;9.420;2023-06-14T14:53:01;98411.03;;;27.19;25.73
48792;BME280;34587;48.816;9.420;2023-06-14T14:55:26;98399.25;;;28.25;24.56
48792;BME280;34587;48.816;9.420;2023-06-14T14:57:51;98404.44;;;27.33;26.67
48792;BME280;34587;48.816;9.420;2023-06-14T15:00:17;98403.63;;;27.79;26.39
48792;BME280;34587;48.816;9.420;2023-06-14T15:02:42;98396.47;;;28.72;24.83
48792;BME280;34587;48.816;9.420;2023-06-14T15:05:08;98397.84;;;28.21;24.73
48792;BME280;34587;48.816;9.420;2023-06-14T15:07:33;98401.06;;;27.40;24.77
48792;BME280;34587;48.816;9.420;2023-06-14T15:09:59;98406.97;;;27.15;25.74
48792;BME280;34587;48.816;9.420;2023-06-14T15:12:24;98401.44;;;25.99;27.17
48792;BME280;34587;48.816;9.420;2023-06-14T15:14:51;98399.69;;;26.28;26.78
48792;BME280;34587;48.816;9.420;2023-06-14T15:17:20;98399.31;;;25.93;27.32
48792;BME280;34587;48.816;9.420;2023-06-14T15:19:46;98406.16;;;25.23;28.88
48792;BME280;34587;48.816;9.420;2023-06-14T15:22:12;98395.09;;;25.90;27.98
48792;BME280;34587;48.816;9.420;2023-06-14T15:24:38;98404.69;;;26.12;27.56
48792;BME280;34587;48.816;9.420;2023-06-14T15:27:03;98397.28;;;26.46;27.62
48792;BME280;34587;48.816;9.420;2023-06-14T15:29:29;98405.94;;;26.58;27.53
48792;BME280;34587;48.816;9.420;2023-06-14T15:31:54;98398.28;;;26.24;27.48
48792;BME280;34587;48.816;9.420;2023-06-14T15:34:23;98398.53;;;26.02;27.04
48792;BME280;34587;48.816;9.420;2023-06-14T15:36:48;98401.28;;;26.40;26.50
48792;BME280;34587;48.816;9.420;2023-06-14T15:39:13;98396.59;;;26.73;26.47
48792;BME280;34587;48.816;9.420;2023-06-14T15:41:39;98398.13;;;26.76;27.21
48792;BME280;34587;48.816;9.420;2023-06-14T15:44:04;98400.09;;;26.83;26.58
48792;BME280;34587;48.816;9.420;2023-06-14T15:46:29;98398.84;;;27.26;26.31
48792;BME280;34587;48.816;9.420;2023-06-14T15:48:55;98398.25;;;26.14;27.43
48792;BME280;34587;48.816;9.420;2023-06-14T15:51:20;98396.69;;;26.43;26.49
48792;BME280;34587;48.816;9.420;2023-06-14T15:53:45;98395.34;;;26.97;26.93
48792;BME280;34587;48.816;9.420;2023-06-14T15:56:10;98396.75;;;27.10;25.65
48792;BME280;34587;48.816;9.420;2023-06-14T15:58:36;98395.06;;;26.71;26.64
48792;BME280;34587;48.816;9.420;2023-06-14T16:01:01;98390.16;;;26.06;27.13
48792;BME280;34587;48.816;9.420;2023-06-14T16:03:26;98387.78;;;26.82;26.18
48792;BME280;34587;48.816;9.420;2023-06-14T16:05:52;98401.78;;;27.33;26.40
48792;BME280;34587;48.816;9.420;2023-06-14T16:08:17;98400.38;;;26.80;26.60
48792;BME280;34587;48.816;9.420;2023-06-14T16:10:43;98393.09;;;26.63;26.64
48792;BME280;34587;48.816;9.420;2023-06-14T16:13:08;98396.47;;;26.65;25.93
48792;BME280;34587;48.816;9.420;2023-06-14T16:15:33;98396.16;;;26.97;26.48
48792;BME280;34587;48.816;9.420;2023-06-14T16:17:58;98390.59;;;26.71;26.06
48792;BME280;34587;48.816;9.420;2023-06-14T16:20:24;98389.25;;;26.36;27.04
48792;BME280;34587;48.816;9.420;2023-06-14T16:22:49;98394.22;;;26.70;26.66
48792;BME280;34587;48.816;9.420;2023-06-14T16:25:14;98405.16;;;27.25;25.41
48792;BME280;34587;48.816;9.420;2023-06-14T16:27:40;98400.91;;;27.52;26.16
48792;BME280;34587;48.816;9.420;2023-06-14T16:30:06;98397.47;;;26.33;27.16
48792;BME280;34587;48.816;9.420;2023-06-14T16:32:32;98397.13;;;26.07;28.15
48792;BME280;34587;48.816;9.420;2023-06-14T16:34:58;98398.69;;;26.70;27.07
48792;BME280;34587;48.816;9.420;2023-06-14T16:37:24;98401.63;;;26.67;26.82
48792;BME280;34587;48.816;9.420;2023-06-14T16:39:49;98406.50;;;26.52;27.22
48792;BME280;34587;48.816;9.420;2023-06-14T16:42:14;98411.28;;;26.87;26.72
48792;BME280;34587;48.816;9.420;2023-06-14T16:44:40;98410.16;;;26.60;27.08
48792;BME280;34587;48.816;9.420;2023-06-14T16:47:05;98407.06;;;25.12;29.70
48792;BME280;34587;48.816;9.420;2023-06-14T16:49:32;98421.88;;;25.35;29.20
48792;BME280;34587;48.816;9.420;2023-06-14T16:51:57;98423.88;;;25.85;28.61
48792;BME280;34587;48.816;9.420;2023-06-14T16:54:22;98419.22;;;25.56;28.93
48792;BME280;34587;48.816;9.420;2023-06-14T16:56:48;98422.50;;;25.07;29.89
48792;BME280;34587;48.816;9.420;2023-06-14T16:59:13;98426.22;;;24.72;30.25
48792;BME280;34587;48.816;9.420;2023-06-14T17:01:38;98426.38;;;24.59;30.06
48792;BME280;34587;48.816;9.420;2023-06-14T17:04:04;98433.91;;;24.75;30.07
48792;BME280;34587;48.816;9.420;2023-06-14T17:06:29;98437.81;;;24.71;29.88
48792;BME280;34587;48.816;9.420;2023-06-14T17:08:55;98438.88;;;24.69;30.25
48792;BME280;34587;48.816;9.420;2023-06-14T17:11:21;98436.53;;;24.86;29.57
48792;BME280;34587;48.816;9.420;2023-06-14T17:13:50;98443.94;;;25.04;29.54
48792;BME280;34587;48.816;9.420;2023-06-14T17:16:15;98441.00;;;25.18;29.12
48792;BME280;34587;48.816;9.420;2023-06-14T17:18:41;98438.31;;;25.29;28.96
48792;BME280;34587;48.816;9.420;2023-06-14T17:21:06;98443.88;;;25.26;29.19
48792;BME280;34587;48.816;9.420;2023-06-14T17:23:31;98444.53;;;25.40;29.39